sensor_id;sensor_type;location;lat;lon;timestamp;P1;durP1;ratioP1;P2;durP2;ratioP2
34978;SDS011;21185;50.978;13.720;2023-02-28T00:04:06;3.45;;;2.78;;
34978;SDS011;21185;50.978;13.720;2023-02-28T00:09:10;6.40;;;3.80;;
34978;SDS011;21185;50.978;13.720;2023-02-28T00:14:12;5.95;;;3.60;;
34978;SDS011;21185;50.978;13.720;2023-02-28T00:19:14;9.98;;;3.95;;
34978;SDS011;21185;50.978;13.720;2023-02-28T00:24:16;9.70;;;4.03;;
34978;SDS011;21185;50.978;13.720;2023-02-28T00:29:18;7.82;;;3.70;;
34978;SDS011;21185;50.978;13.720;2023-02-28T00:34:20;10.18;;;3.70;;
34978;SDS011;21185;50.978;13.720;2023-02-28T00:39:22;10.73;;;3.22;;
34978;SDS011;21185;50.978;13.720;2023-02-28T00:44:24;7.63;;;3.83;;
34978;SDS011;21185;50.978;13.720;2023-02-28T00:49:27;9.98;;;3.85;;
34978;SDS011;21185;50.978;13.720;2023-02-28T00:54:29;7.05;;;4.00;;
34978;SDS011;21185;50.978;13.720;2023-02-28T00:59:31;6.07;;;3.15;;
34978;SDS011;21185;50.978;13.720;2023-02-28T01:04:33;5.05;;;3.08;;
34978;SDS011;21185;50.978;13.720;2023-02-28T01:09:36;8.50;;;3.42;;
34978;SDS011;21185;50.978;13.720;2023-02-28T01:14:38;8.55;;;3.67;;
34978;SDS011;21185;50.978;13.720;2023-02-28T01:19:40;8.90;;;3.88;;
34978;SDS011;21185;50.978;13.720;2023-02-28T01:24:44;7.05;;;3.35;;
34978;SDS011;21185;50.978;13.720;2023-02-28T01:29:50;15.13;;;5.10;;
34978;SDS011;21185;50.978;13.720;2023-02-28T01:34:52;6.35;;;3.78;;
34978;SDS011;21185;50.978;13.720;2023-02-28T01:39:57;8.77;;;3.55;;
34978;SDS011;21185;50.978;13.720;2023-02-28T01:45:01;10.73;;;4.25;;
34978;SDS011;21185;50.978;13.720;2023-02-28T01:50:06;6.57;;;3.40;;
34978;SDS011;21185;50.978;13.720;2023-02-28T01:55:13;6.28;;;3.47;;
34978;SDS011;21185;50.978;13.720;2023-02-28T02:00:20;8.20;;;4.15;;
34978;SDS011;21185;50.978;13.720;2023-02-28T02:05:26;6.67;;;4.40;;
34978;SDS011;21185;50.978;13.720;2023-02-28T02:10:34;9.13;;;3.55;;
34978;SDS011;21185;50.978;13.720;2023-02-28T02:15:42;7.70;;;4.60;;
34978;SDS011;21185;50.978;13.720;2023-02-28T02:21:09;7.70;;;4.18;;
34978;SDS011;21185;50.978;13.720;2023-02-28T02:31:29;9.13;;;4.53;;
34978;SDS011;21185;50.978;13.720;2023-02-28T02:36:49;7.47;;;3.85;;
34978;SDS011;21185;50.978;13.720;2023-02-28T02:41:54;10.95;;;4.53;;
34978;SDS011;21185;50.978;13.720;2023-02-28T02:47:10;6.18;;;3.47;;
34978;SDS011;21185;50.978;13.720;2023-02-28T02:52:16;5.88;;;3.88;;
34978;SDS011;21185;50.978;13.720;2023-02-28T02:57:24;7.22;;;3.97;;
34978;SDS011;21185;50.978;13.720;2023-02-28T03:02:32;12.02;;;4.10;;
34978;SDS011;21185;50.978;13.720;2023-02-28T03:07:36;8.15;;;4.32;;
34978;SDS011;21185;50.978;13.720;2023-02-28T03:12:44;12.25;;;4.65;;
34978;SDS011;21185;50.978;13.720;2023-02-28T03:23:19;12.85;;;5.30;;
34978;SDS011;21185;50.978;13.720;2023-02-28T03:34:08;8.55;;;4.55;;
34978;SDS011;21185;50.978;13.720;2023-02-28T03:39:17;15.60;;;5.18;;
34978;SDS011;21185;50.978;13.720;2023-02-28T03:44:34;9.95;;;5.65;;
34978;SDS011;21185;50.978;13.720;2023-02-28T03:49:42;13.40;;;4.97;;
34978;SDS011;21185;50.978;13.720;2023-02-28T03:54:52;9.25;;;4.55;;
34978;SDS011;21185;50.978;13.720;2023-02-28T04:00:17;9.37;;;5.50;;
34978;SDS011;21185;50.978;13.720;2023-02-28T04:05:23;14.55;;;5.85;;
34978;SDS011;21185;50.978;13.720;2023-02-28T04:10:25;10.50;;;5.07;;
34978;SDS011;21185;50.978;13.720;2023-02-28T04:15:27;11.88;;;5.03;;
34978;SDS011;21185;50.978;13.720;2023-02-28T04:20:29;11.82;;;5.32;;
34978;SDS011;21185;50.978;13.720;2023-02-28T04:25:31;11.40;;;5.25;;
34978;SDS011;21185;50.978;13.720;2023-02-28T04:30:33;11.25;;;5.82;;
34978;SDS011;21185;50.978;13.720;2023-02-28T04:35:35;10.93;;;5.20;;
34978;SDS011;21185;50.978;13.720;2023-02-28T04:40:37;11.57;;;5.15;;
34978;SDS011;21185;50.978;13.720;2023-02-28T04:45:38;16.88;;;6.53;;
34978;SDS011;21185;50.978;13.720;2023-02-28T04:50:41;9.93;;;5.70;;
34978;SDS011;21185;50.978;13.720;2023-02-28T04:55:43;13.23;;;5.50;;
34978;SDS011;21185;50.978;13.720;2023-02-28T05:00:45;11.20;;;5.45;;
34978;SDS011;21185;50.978;13.720;2023-02-28T05:05:47;14.95;;;6.32;;
34978;SDS011;21185;50.978;13.720;2023-02-28T05:10:49;8.90;;;5.68;;
34978;SDS011;21185;50.978;13.720;2023-02-28T05:15:51;10.82;;;5.47;;
34978;SDS011;21185;50.978;13.720;2023-02-28T05:20:53;14.00;;;6.03;;
34978;SDS011;21185;50.978;13.720;2023-02-28T05:25:55;15.63;;;5.63;;
34978;SDS011;21185;50.978;13.720;2023-02-28T05:30:57;15.63;;;6.35;;
34978;SDS011;21185;50.978;13.720;2023-02-28T05:35:59;12.85;;;6.35;;
34978;SDS011;21185;50.978;13.720;2023-02-28T05:41:04;10.85;;;5.45;;
34978;SDS011;21185;50.978;13.720;2023-02-28T05:46:10;10.57;;;5.55;;
34978;SDS011;21185;50.978;13.720;2023-02-28T05:51:14;20.63;;;6.18;;
34978;SDS011;21185;50.978;13.720;2023-02-28T05:56:16;14.43;;;6.35;;
34978;SDS011;21185;50.978;13.720;2023-02-28T06:01:37;18.38;;;7.00;;
34978;SDS011;21185;50.978;13.720;2023-02-28T06:06:41;18.48;;;5.63;;
34978;SDS011;21185;50.978;13.720;2023-02-28T06:11:42;12.00;;;4.88;;
34978;SDS011;21185;50.978;13.720;2023-02-28T06:16:45;11.93;;;5.90;;
34978;SDS011;21185;50.978;13.720;2023-02-28T06:21:49;15.82;;;6.43;;
34978;SDS011;21185;50.978;13.720;2023-02-28T06:26:53;16.33;;;6.97;;
34978;SDS011;21185;50.978;13.720;2023-02-28T06:31:55;12.27;;;5.50;;
34978;SDS011;21185;50.978;13.720;2023-02-28T06:36:57;21.50;;;7.30;;
34978;SDS011;21185;50.978;13.720;2023-02-28T06:42:03;13.75;;;6.85;;
34978;SDS011;21185;50.978;13.720;2023-02-28T06:47:05;13.05;;;6.20;;
34978;SDS011;21185;50.978;13.720;2023-02-28T06:52:07;12.32;;;5.50;;
34978;SDS011;21185;50.978;13.720;2023-02-28T06:57:11;11.52;;;6.10;;
34978;SDS011;21185;50.978;13.720;2023-02-28T07:02:13;16.67;;;7.57;;
34978;SDS011;21185;50.978;13.720;2023-02-28T07:07:15;15.13;;;6.60;;
34978;SDS011;21185;50.978;13.720;2023-02-28T07:12:17;11.80;;;6.13;;
34978;SDS011;21185;50.978;13.720;2023-02-28T07:17:19;15.40;;;6.60;;
34978;SDS011;21185;50.978;13.720;2023-02-28T07:22:21;17.42;;;6.90;;
34978;SDS011;21185;50.978;13.720;2023-02-28T07:27:23;15.90;;;6.95;;
34978;SDS011;21185;50.978;13.720;2023-02-28T07:32:27;15.07;;;6.65;;
34978;SDS011;21185;50.978;13.720;2023-02-28T07:37:29;14.55;;;6.70;;
34978;SDS011;21185;50.978;13.720;2023-02-28T07:42:33;15.48;;;6.15;;
34978;SDS011;21185;50.978;13.720;2023-02-28T07:47:37;15.75;;;7.57;;
34978;SDS011;21185;50.978;13.720;2023-02-28T07:52:40;20.65;;;7.88;;
34978;SDS011;21185;50.978;13.720;2023-02-28T07:57:43;14.13;;;7.38;;
34978;SDS011;21185;50.978;13.720;2023-02-28T08:02:45;12.77;;;6.47;;
34978;SDS011;21185;50.978;13.720;2023-02-28T08:07:51;21.02;;;7.00;;
34978;SDS011;21185;50.978;13.720;2023-02-28T08:12:52;20.08;;;7.38;;
34978;SDS011;21185;50.978;13.720;2023-02-28T08:17:54;12.98;;;6.40;;
34978;SDS011;21185;50.978;13.720;2023-02-28T08:22:57;17.95;;;6.00;;
34978;SDS011;21185;50.978;13.720;2023-02-28T08:27:59;11.13;;;5.40;;
34978;SDS011;21185;50.978;13.720;2023-02-28T08:33:01;12.05;;;5.80;;
34978;SDS011;21185;50.978;13.720;2023-02-28T08:38:03;18.27;;;6.03;;
34978;SDS011;21185;50.978;13.720;2023-02-28T08:43:05;15.00;;;6.60;;
34978;SDS011;21185;50.978;13.720;2023-02-28T08:48:07;15.88;;;6.93;;
34978;SDS011;21185;50.978;13.720;2023-02-28T08:53:09;16.55;;;6.60;;
34978;SDS011;21185;50.978;13.720;2023-02-28T08:58:11;11.82;;;6.25;;
34978;SDS011;21185;50.978;13.720;2023-02-28T09:03:12;10.50;;;5.88;;
34978;SDS011;21185;50.978;13.720;2023-02-28T09:08:14;17.85;;;5.88;;
34978;SDS011;21185;50.978;13.720;2023-02-28T09:13:16;19.83;;;5.97;;
34978;SDS011;21185;50.978;13.720;2023-02-28T09:18:18;12.00;;;6.25;;
34978;SDS011;21185;50.978;13.720;2023-02-28T09:23:21;10.93;;;4.85;;
34978;SDS011;21185;50.978;13.720;2023-02-28T09:28:23;13.63;;;5.53;;
34978;SDS011;21185;50.978;13.720;2023-02-28T09:33:26;14.10;;;6.55;;
34978;SDS011;21185;50.978;13.720;2023-02-28T09:38:28;9.80;;;5.03;;
34978;SDS011;21185;50.978;13.720;2023-02-28T09:43:34;15.88;;;6.40;;
34978;SDS011;21185;50.978;13.720;2023-02-28T09:48:41;11.35;;;6.50;;
34978;SDS011;21185;50.978;13.720;2023-02-28T09:53:47;12.10;;;5.72;;
34978;SDS011;21185;50.978;13.720;2023-02-28T09:59:01;11.75;;;5.70;;
34978;SDS011;21185;50.978;13.720;2023-02-28T10:09:24;13.63;;;5.47;;
34978;SDS011;21185;50.978;13.720;2023-02-28T10:14:33;12.38;;;5.38;;
34978;SDS011;21185;50.978;13.720;2023-02-28T10:24:44;10.02;;;5.35;;
34978;SDS011;21185;50.978;13.720;2023-02-28T10:45:25;9.50;;;5.63;;
34978;SDS011;21185;50.978;13.720;2023-02-28T10:50:34;12.52;;;5.70;;
34978;SDS011;21185;50.978;13.720;2023-02-28T10:55:46;15.23;;;5.93;;
34978;SDS011;21185;50.978;13.720;2023-02-28T11:01:02;13.13;;;5.72;;
34978;SDS011;21185;50.978;13.720;2023-02-28T11:06:08;9.25;;;5.20;;
34978;SDS011;21185;50.978;13.720;2023-02-28T11:11:17;15.93;;;6.18;;
34978;SDS011;21185;50.978;13.720;2023-02-28T11:16:20;14.90;;;5.43;;
34978;SDS011;21185;50.978;13.720;2023-02-28T11:21:27;13.07;;;6.45;;
34978;SDS011;21185;50.978;13.720;2023-02-28T11:26:39;10.10;;;6.00;;
34978;SDS011;21185;50.978;13.720;2023-02-28T11:31:43;13.93;;;6.47;;
34978;SDS011;21185;50.978;13.720;2023-02-28T11:36:59;11.75;;;6.43;;
34978;SDS011;21185;50.978;13.720;2023-02-28T11:52:55;10.48;;;4.43;;
34978;SDS011;21185;50.978;13.720;2023-02-28T11:58:24;13.65;;;4.65;;
34978;SDS011;21185;50.978;13.720;2023-02-28T12:03:46;12.35;;;5.72;;
34978;SDS011;21185;50.978;13.720;2023-02-28T12:09:00;10.45;;;5.68;;
34978;SDS011;21185;50.978;13.720;2023-02-28T12:25:20;11.23;;;5.90;;
34978;SDS011;21185;50.978;13.720;2023-02-28T12:36:25;9.35;;;4.95;;
34978;SDS011;21185;50.978;13.720;2023-02-28T12:41:36;10.00;;;5.47;;
34978;SDS011;21185;50.978;13.720;2023-02-28T12:46:58;11.75;;;5.97;;
34978;SDS011;21185;50.978;13.720;2023-02-28T12:52:06;12.10;;;5.45;;
34978;SDS011;21185;50.978;13.720;2023-02-28T12:57:18;16.17;;;6.47;;
34978;SDS011;21185;50.978;13.720;2023-02-28T13:13:05;23.00;;;5.43;;
34978;SDS011;21185;50.978;13.720;2023-02-28T13:18:20;13.73;;;5.80;;
34978;SDS011;21185;50.978;13.720;2023-02-28T13:23:56;12.50;;;6.22;;
34978;SDS011;21185;50.978;13.720;2023-02-28T13:29:01;11.85;;;5.05;;
34978;SDS011;21185;50.978;13.720;2023-02-28T13:34:26;16.38;;;6.45;;
34978;SDS011;21185;50.978;13.720;2023-02-28T13:45:19;12.73;;;6.50;;
34978;SDS011;21185;50.978;13.720;2023-02-28T13:55:28;11.98;;;6.15;;
34978;SDS011;21185;50.978;13.720;2023-02-28T14:06:21;16.45;;;6.90;;
34978;SDS011;21185;50.978;13.720;2023-02-28T14:11:35;17.63;;;7.50;;
34978;SDS011;21185;50.978;13.720;2023-02-28T14:16:40;12.45;;;7.32;;
34978;SDS011;21185;50.978;13.720;2023-02-28T14:22:01;14.65;;;7.00;;
34978;SDS011;21185;50.978;13.720;2023-02-28T14:32:30;15.43;;;6.22;;
34978;SDS011;21185;50.978;13.720;2023-02-28T14:37:37;16.40;;;7.95;;
34978;SDS011;21185;50.978;13.720;2023-02-28T14:42:47;15.38;;;6.82;;
34978;SDS011;21185;50.978;13.720;2023-02-28T14:48:00;20.80;;;7.32;;
34978;SDS011;21185;50.978;13.720;2023-02-28T14:53:04;13.87;;;6.73;;
34978;SDS011;21185;50.978;13.720;2023-02-28T14:58:22;18.30;;;8.10;;
34978;SDS011;21185;50.978;13.720;2023-02-28T15:08:32;14.43;;;6.53;;
34978;SDS011;21185;50.978;13.720;2023-02-28T15:23:58;14.57;;;6.03;;
34978;SDS011;21185;50.978;13.720;2023-02-28T15:29:07;13.88;;;6.55;;
34978;SDS011;21185;50.978;13.720;2023-02-28T15:34:22;13.63;;;6.68;;
34978;SDS011;21185;50.978;13.720;2023-02-28T15:39:42;15.63;;;7.30;;
34978;SDS011;21185;50.978;13.720;2023-02-28T15:44:46;13.13;;;6.95;;
34978;SDS011;21185;50.978;13.720;2023-02-28T15:49:52;18.35;;;6.25;;
34978;SDS011;21185;50.978;13.720;2023-02-28T15:55:06;11.77;;;6.00;;
34978;SDS011;21185;50.978;13.720;2023-02-28T16:00:15;20.70;;;7.33;;
34978;SDS011;21185;50.978;13.720;2023-02-28T16:05:29;15.93;;;7.53;;
34978;SDS011;21185;50.978;13.720;2023-02-28T16:10:33;16.55;;;6.95;;
34978;SDS011;21185;50.978;13.720;2023-02-28T16:15:37;17.60;;;8.55;;
34978;SDS011;21185;50.978;13.720;2023-02-28T16:20:43;17.75;;;7.50;;
34978;SDS011;21185;50.978;13.720;2023-02-28T16:25:46;13.48;;;6.75;;
34978;SDS011;21185;50.978;13.720;2023-02-28T16:30:48;16.70;;;6.93;;
34978;SDS011;21185;50.978;13.720;2023-02-28T16:35:53;18.52;;;7.40;;
34978;SDS011;21185;50.978;13.720;2023-02-28T16:40:55;20.73;;;6.72;;
34978;SDS011;21185;50.978;13.720;2023-02-28T16:46:01;15.60;;;7.35;;
34978;SDS011;21185;50.978;13.720;2023-02-28T16:51:05;14.48;;;6.45;;
34978;SDS011;21185;50.978;13.720;2023-02-28T16:56:10;17.77;;;7.53;;
34978;SDS011;21185;50.978;13.720;2023-02-28T17:01:18;20.48;;;7.95;;
34978;SDS011;21185;50.978;13.720;2023-02-28T17:06:24;33.20;;;11.82;;
34978;SDS011;21185;50.978;13.720;2023-02-28T17:11:29;34.50;;;12.20;;
34978;SDS011;21185;50.978;13.720;2023-02-28T17:16:33;37.88;;;12.20;;
34978;SDS011;21185;50.978;13.720;2023-02-28T17:21:37;46.95;;;13.68;;
34978;SDS011;21185;50.978;13.720;2023-02-28T17:26:41;43.00;;;14.93;;
34978;SDS011;21185;50.978;13.720;2023-02-28T17:31:44;46.55;;;17.38;;
34978;SDS011;21185;50.978;13.720;2023-02-28T17:36:47;63.67;;;23.27;;
34978;SDS011;21185;50.978;13.720;2023-02-28T17:41:51;47.65;;;17.50;;
34978;SDS011;21185;50.978;13.720;2023-02-28T17:46:54;31.20;;;13.73;;
34978;SDS011;21185;50.978;13.720;2023-02-28T17:51:57;41.97;;;16.98;;
34978;SDS011;21185;50.978;13.720;2023-02-28T17:56:59;31.00;;;13.38;;
34978;SDS011;21185;50.978;13.720;2023-02-28T18:02:02;33.83;;;13.02;;
34978;SDS011;21185;50.978;13.720;2023-02-28T18:07:05;33.53;;;14.13;;
34978;SDS011;21185;50.978;13.720;2023-02-28T18:12:10;39.92;;;15.20;;
34978;SDS011;21185;50.978;13.720;2023-02-28T18:17:12;45.47;;;14.88;;
34978;SDS011;21185;50.978;13.720;2023-02-28T18:22:14;57.20;;;19.45;;
34978;SDS011;21185;50.978;13.720;2023-02-28T18:27:17;41.33;;;15.95;;
34978;SDS011;21185;50.978;13.720;2023-02-28T18:32:19;37.13;;;13.43;;
34978;SDS011;21185;50.978;13.720;2023-02-28T18:37:21;24.63;;;12.77;;
34978;SDS011;21185;50.978;13.720;2023-02-28T18:42:23;25.92;;;11.90;;
34978;SDS011;21185;50.978;13.720;2023-02-28T18:47:26;25.25;;;12.50;;
34978;SDS011;21185;50.978;13.720;2023-02-28T18:52:28;31.90;;;13.05;;
34978;SDS011;21185;50.978;13.720;2023-02-28T18:57:30;25.42;;;11.90;;
34978;SDS011;21185;50.978;13.720;2023-02-28T19:02:31;35.25;;;13.27;;
34978;SDS011;21185;50.978;13.720;2023-02-28T19:07:34;26.77;;;11.77;;
34978;SDS011;21185;50.978;13.720;2023-02-28T19:12:37;24.88;;;11.32;;
34978;SDS011;21185;50.978;13.720;2023-02-28T19:17:39;38.85;;;15.25;;
34978;SDS011;21185;50.978;13.720;2023-02-28T19:22:42;264.45;;;60.22;;
34978;SDS011;21185;50.978;13.720;2023-02-28T19:27:45;245.30;;;55.80;;
34978;SDS011;21185;50.978;13.720;2023-02-28T19:32:47;195.80;;;50.15;;
34978;SDS011;21185;50.978;13.720;2023-02-28T19:37:49;69.63;;;22.90;;
34978;SDS011;21185;50.978;13.720;2023-02-28T19:42:53;46.17;;;17.10;;
34978;SDS011;21185;50.978;13.720;2023-02-28T19:47:55;40.65;;;15.43;;
34978;SDS011;21185;50.978;13.720;2023-02-28T19:52:57;59.30;;;18.88;;
34978;SDS011;21185;50.978;13.720;2023-02-28T19:58:01;71.00;;;24.50;;
34978;SDS011;21185;50.978;13.720;2023-02-28T20:03:02;50.40;;;18.17;;
34978;SDS011;21185;50.978;13.720;2023-02-28T20:08:05;37.45;;;15.63;;
34978;SDS011;21185;50.978;13.720;2023-02-28T20:13:07;41.08;;;17.63;;
34978;SDS011;21185;50.978;13.720;2023-02-28T20:18:10;50.22;;;19.05;;
34978;SDS011;21185;50.978;13.720;2023-02-28T20:23:12;46.00;;;20.20;;
34978;SDS011;21185;50.978;13.720;2023-02-28T20:28:14;36.38;;;15.57;;
34978;SDS011;21185;50.978;13.720;2023-02-28T20:33:16;29.80;;;12.73;;
34978;SDS011;21185;50.978;13.720;2023-02-28T20:38:19;30.30;;;11.80;;
34978;SDS011;21185;50.978;13.720;2023-02-28T20:43:21;23.05;;;11.38;;
34978;SDS011;21185;50.978;13.720;2023-02-28T20:48:24;26.90;;;11.93;;
34978;SDS011;21185;50.978;13.720;2023-02-28T20:53:26;21.67;;;10.23;;
34978;SDS011;21185;50.978;13.720;2023-02-28T20:58:30;29.80;;;11.77;;
34978;SDS011;21185;50.978;13.720;2023-02-28T21:03:34;30.35;;;11.38;;
34978;SDS011;21185;50.978;13.720;2023-02-28T21:08:36;20.60;;;9.73;;
34978;SDS011;21185;50.978;13.720;2023-02-28T21:13:40;21.73;;;8.65;;
34978;SDS011;21185;50.978;13.720;2023-02-28T21:18:43;26.50;;;8.68;;
34978;SDS011;21185;50.978;13.720;2023-02-28T21:23:46;20.33;;;8.55;;
34978;SDS011;21185;50.978;13.720;2023-02-28T21:28:52;22.77;;;10.05;;
34978;SDS011;21185;50.978;13.720;2023-02-28T21:33:56;20.73;;;9.63;;
34978;SDS011;21185;50.978;13.720;2023-02-28T21:39:11;23.10;;;10.90;;
34978;SDS011;21185;50.978;13.720;2023-02-28T21:44:17;26.05;;;11.57;;
34978;SDS011;21185;50.978;13.720;2023-02-28T21:49:20;25.90;;;11.05;;
34978;SDS011;21185;50.978;13.720;2023-02-28T21:54:24;22.40;;;10.75;;
34978;SDS011;21185;50.978;13.720;2023-02-28T21:59:26;22.27;;;11.25;;
34978;SDS011;21185;50.978;13.720;2023-02-28T22:04:28;20.42;;;10.05;;
34978;SDS011;21185;50.978;13.720;2023-02-28T22:09:30;22.58;;;9.35;;
34978;SDS011;21185;50.978;13.720;2023-02-28T22:14:32;16.10;;;8.40;;
34978;SDS011;21185;50.978;13.720;2023-02-28T22:19:34;35.00;;;11.77;;
34978;SDS011;21185;50.978;13.720;2023-02-28T22:24:37;29.45;;;12.65;;
34978;SDS011;21185;50.978;13.720;2023-02-28T22:29:39;26.65;;;11.75;;
34978;SDS011;21185;50.978;13.720;2023-02-28T22:34:40;26.55;;;10.82;;
34978;SDS011;21185;50.978;13.720;2023-02-28T22:39:42;33.92;;;12.50;;
34978;SDS011;21185;50.978;13.720;2023-02-28T22:44:49;30.73;;;12.35;;
34978;SDS011;21185;50.978;13.720;2023-02-28T22:49:51;30.38;;;13.80;;
34978;SDS011;21185;50.978;13.720;2023-02-28T22:54:53;23.42;;;12.45;;
34978;SDS011;21185;50.978;13.720;2023-02-28T22:59:54;28.60;;;12.45;;
34978;SDS011;21185;50.978;13.720;2023-02-28T23:04:56;36.65;;;12.93;;
34978;SDS011;21185;50.978;13.720;2023-02-28T23:09:58;25.38;;;11.02;;
34978;SDS011;21185;50.978;13.720;2023-02-28T23:15:00;24.35;;;10.98;;
34978;SDS011;21185;50.978;13.720;2023-02-28T23:20:02;24.50;;;12.65;;
34978;SDS011;21185;50.978;13.720;2023-02-28T23:25:04;21.63;;;10.73;;
34978;SDS011;21185;50.978;13.720;2023-02-28T23:30:07;22.20;;;10.73;;
34978;SDS011;21185;50.978;13.720;2023-02-28T23:35:10;28.20;;;12.18;;
34978;SDS011;21185;50.978;13.720;2023-02-28T23:40:13;22.25;;;11.30;;
34978;SDS011;21185;50.978;13.720;2023-02-28T23:45:15;29.25;;;12.50;;
34978;SDS011;21185;50.978;13.720;2023-02-28T23:50:18;24.80;;;11.90;;
34978;SDS011;21185;50.978;13.720;2023-02-28T23:55:20;25.63;;;12.00;;
